Time;durP1;ratioP1;P1;durP2;ratioP2;P2;SDS_P1;SDS_P2;PMS_P1;PMS_P2;Temp;Humidity;BMP_temperature;BMP_pressure;BME280_temperature;BME280_humidity;BME280_pressure;Samples;Min_cycle;Max_cycle;Signal;HPM_P1;HPM_P2
2022/10/06 00:00:47;;;;;;;10.00;7.30;;;;;;;;;;5092109;28;20181;-69
2022/10/06 00:03:14;;;;;;;12.73;7.07;;;;;;;;;;5110014;28;20678;-69
2022/10/06 00:05:41;;;;;;;12.23;7.50;;;;;;;;;;5109563;28;20686;-69
2022/10/06 00:08:07;;;;;;;10.60;7.07;;;;;;;;;;5110163;28;20250;-69
2022/10/06 00:10:35;;;;;;;11.07;7.50;;;;;;;;;;5092516;28;20173;-69
2022/10/06 00:13:02;;;;;;;11.53;7.57;;;;;;;;;;5092072;28;20188;-69
2022/10/06 00:15:30;;;;;;;10.97;7.27;;;;;;;;;;5091796;28;20189;-69
2022/10/06 00:17:57;;;;;;;9.07;7.07;;;;;;;;;;5075095;28;20600;-69
2022/10/06 00:20:24;;;;;;;10.97;7.30;;;;;;;;;;5089675;28;20180;-69
2022/10/06 00:22:51;;;;;;;10.80;7.37;;;;;;;;;;5089730;28;20278;-69
2022/10/06 00:25:18;;;;;;;10.90;7.43;;;;;;;;;;5088187;28;20232;-69
2022/10/06 00:27:46;;;;;;;10.33;7.40;;;;;;;;;;5071726;28;20196;-69
2022/10/06 00:30:19;;;;;;;9.27;7.10;;;;;;;;;;5071329;28;20201;-69
2022/10/06 00:32:52;;;;;;;9.67;7.47;;;;;;;;;;5089875;28;20219;-69
2022/10/06 00:35:19;;;;;;;13.63;7.43;;;;;;;;;;5071922;28;20264;-69
2022/10/06 00:37:46;;;;;;;9.27;6.87;;;;;;;;;;5102985;28;20711;-69
2022/10/06 00:40:13;;;;;;;9.57;7.10;;;;;;;;;;5092051;28;20186;-69
2022/10/06 00:42:58;;;;;;;10.10;7.33;;;;;;;;;;5071373;28;20208;-69
2022/10/06 00:45:25;;;;;;;9.70;6.60;;;;;;;;;;5087914;28;20228;-69
2022/10/06 00:47:52;;;;;;;9.27;7.10;;;;;;;;;;5089194;28;20185;-69
2022/10/06 00:50:19;;;;;;;11.07;7.17;;;;;;;;;;5089202;28;20189;-69
2022/10/06 00:52:46;;;;;;;9.43;6.77;;;;;;;;;;5071543;28;20201;-69
2022/10/06 00:55:13;;;;;;;9.37;6.60;;;;;;;;;;5071189;28;20197;-69
2022/10/06 00:57:39;;;;;;;10.30;6.87;;;;;;;;;;5089263;28;20189;-69
2022/10/06 01:00:07;;;;;;;9.20;6.47;;;;;;;;;;5071049;28;20205;-69
2022/10/06 01:02:38;;;;;;;9.70;6.00;;;;;;;;;;5071739;28;20576;-69
2022/10/06 01:05:05;;;;;;;9.33;6.13;;;;;;;;;;5070915;28;20205;-69
2022/10/06 01:07:33;;;;;;;8.60;6.60;;;;;;;;;;5089325;28;20189;-69
2022/10/06 01:09:59;;;;;;;8.93;6.87;;;;;;;;;;5054282;28;21086;-69
2022/10/06 01:12:26;;;;;;;9.60;7.13;;;;;;;;;;5089073;28;20212;-68
2022/10/06 01:14:53;;;;;;;9.73;6.57;;;;;;;;;;5069598;28;20587;-69
2022/10/06 01:17:20;;;;;;;11.70;7.03;;;;;;;;;;5088001;28;20197;-69
2022/10/06 01:19:52;;;;;;;8.57;6.80;;;;;;;;;;5088506;28;20664;-71
2022/10/06 01:22:29;;;;;;;10.60;7.33;;;;;;;;;;5087914;28;21005;-69
2022/10/06 01:24:56;;;;;;;7.83;7.03;;;;;;;;;;5087424;28;20307;-69
2022/10/06 01:27:22;;;;;;;8.43;6.67;;;;;;;;;;5054094;28;20202;-69
2022/10/06 01:29:52;;;;;;;10.37;7.23;;;;;;;;;;5082178;28;20192;-69
2022/10/06 01:32:20;;;;;;;12.17;7.50;;;;;;;;;;5108251;28;20230;-69
2022/10/06 01:34:46;;;;;;;8.47;6.87;;;;;;;;;;5107632;28;20197;-69
2022/10/06 01:37:14;;;;;;;9.47;7.00;;;;;;;;;;5107818;28;20212;-69
2022/10/06 01:39:41;;;;;;;7.97;6.87;;;;;;;;;;5091081;28;20221;-69
2022/10/06 01:42:08;;;;;;;10.53;7.63;;;;;;;;;;5091027;28;20260;-69
2022/10/06 01:44:36;;;;;;;8.27;7.20;;;;;;;;;;5091231;28;20221;-68
2022/10/06 01:47:03;;;;;;;10.03;6.70;;;;;;;;;;5089943;28;20664;-69
2022/10/06 01:49:48;;;;;;;8.93;6.93;;;;;;;;;;5107832;28;20256;-69
2022/10/06 01:52:14;;;;;;;11.27;7.40;;;;;;;;;;5090862;28;20226;-69
2022/10/06 01:54:41;;;;;;;10.83;6.67;;;;;;;;;;5090701;28;20292;-69
2022/10/06 01:57:08;;;;;;;10.60;7.27;;;;;;;;;;5090612;28;20201;-69
2022/10/06 01:59:36;;;;;;;10.67;6.80;;;;;;;;;;5091153;28;20193;-68
2022/10/06 02:02:03;;;;;;;9.13;7.03;;;;;;;;;;5092788;28;20567;-69
2022/10/06 02:04:30;;;;;;;10.70;7.17;;;;;;;;;;5076729;28;20607;-68
2022/10/06 02:06:57;;;;;;;10.33;6.97;;;;;;;;;;5074248;28;20193;-70
2022/10/06 02:09:44;;;;;;;11.27;7.50;;;;;;;;;;5090932;28;20606;-69
2022/10/06 02:12:12;;;;;;;10.40;7.80;;;;;;;;;;5090655;28;20202;-69
2022/10/06 02:14:58;;;;;;;11.67;8.07;;;;;;;;;;5090938;28;20177;-69
2022/10/06 02:17:24;;;;;;;13.17;7.53;;;;;;;;;;5091051;28;20228;-69
2022/10/06 02:19:51;;;;;;;10.37;7.73;;;;;;;;;;5079007;28;20189;-69
2022/10/06 02:22:18;;;;;;;10.00;7.17;;;;;;;;;;5111029;28;20220;-69
2022/10/06 02:24:47;;;;;;;10.63;7.93;;;;;;;;;;5110682;28;20687;-69
2022/10/06 02:27:13;;;;;;;10.33;7.50;;;;;;;;;;5112233;28;20191;-69
2022/10/06 02:29:40;;;;;;;11.13;7.80;;;;;;;;;;5093941;28;20207;-70
2022/10/06 02:32:07;;;;;;;10.40;7.13;;;;;;;;;;5110423;28;20204;-70
2022/10/06 02:34:34;;;;;;;11.45;8.52;;;;;;;;;;5110219;28;20476;-69
2022/10/06 02:37:01;;;;;;;10.77;7.40;;;;;;;;;;5109455;28;20311;-69
2022/10/06 02:39:28;;;;;;;11.60;8.07;;;;;;;;;;5111982;28;20280;-69
2022/10/06 02:41:55;;;;;;;10.53;7.90;;;;;;;;;;5093392;28;20211;-70
2022/10/06 02:44:23;;;;;;;11.20;7.67;;;;;;;;;;5093793;28;20273;-69
2022/10/06 02:46:52;;;;;;;10.93;8.13;;;;;;;;;;5093464;28;20228;-69
2022/10/06 02:49:19;;;;;;;11.10;7.97;;;;;;;;;;5111699;28;20987;-70
2022/10/06 02:51:47;;;;;;;13.40;7.93;;;;;;;;;;5092288;28;20238;-70
2022/10/06 02:54:14;;;;;;;12.97;8.07;;;;;;;;;;5093466;28;20193;-70
2022/10/06 02:56:41;;;;;;;9.23;7.23;;;;;;;;;;5111604;28;20189;-70
2022/10/06 02:59:08;;;;;;;9.60;7.27;;;;;;;;;;5110218;28;20655;-70
2022/10/06 03:01:37;;;;;;;8.57;6.77;;;;;;;;;;5093119;28;20196;-70
2022/10/06 03:04:11;;;;;;;11.83;7.50;;;;;;;;;;5093179;28;20295;-70
2022/10/06 03:06:40;;;;;;;8.20;6.53;;;;;;;;;;5092773;28;20204;-70
2022/10/06 03:09:22;;;;;;;9.57;6.73;;;;;;;;;;5090328;28;20216;-69
2022/10/06 03:11:50;;;;;;;9.07;7.10;;;;;;;;;;5092700;28;20228;-70
2022/10/06 03:14:39;;;;;;;8.87;6.67;;;;;;;;;;5102532;28;20196;-70
2022/10/06 03:17:10;;;;;;;10.60;6.80;;;;;;;;;;5111064;28;20191;-69
2022/10/06 03:19:43;;;;;;;9.27;7.03;;;;;;;;;;5092715;28;20203;-70
2022/10/06 03:22:10;;;;;;;10.60;7.40;;;;;;;;;;5092746;28;20537;-69
2022/10/06 03:24:43;;;;;;;9.50;7.13;;;;;;;;;;5083515;28;20307;-70
2022/10/06 03:27:10;;;;;;;8.73;6.57;;;;;;;;;;5090390;28;20660;-69
2022/10/06 03:29:37;;;;;;;9.30;6.53;;;;;;;;;;5056423;28;20202;-70
2022/10/06 03:32:04;;;;;;;8.33;6.30;;;;;;;;;;5089042;28;20190;-70
2022/10/06 03:34:33;;;;;;;8.77;6.50;;;;;;;;;;5089037;28;20217;-71
2022/10/06 03:37:03;;;;;;;9.23;6.47;;;;;;;;;;5096492;28;20229;-70
2022/10/06 03:39:29;;;;;;;9.33;6.33;;;;;;;;;;5082746;28;20227;-69
2022/10/06 03:41:56;;;;;;;8.87;6.53;;;;;;;;;;5097456;27;20224;-68
2022/10/06 03:44:24;;;;;;;8.50;6.80;;;;;;;;;;5089366;28;20205;-71
2022/10/06 03:46:51;;;;;;;8.70;6.17;;;;;;;;;;5091909;27;20203;-67
2022/10/06 03:49:18;;;;;;;8.67;5.93;;;;;;;;;;5109349;27;20277;-68
2022/10/06 03:51:45;;;;;;;7.23;6.00;;;;;;;;;;5103485;27;20218;-67
2022/10/06 03:54:18;;;;;;;8.40;5.97;;;;;;;;;;5087669;27;20201;-67
2022/10/06 03:56:48;;;;;;;8.63;6.40;;;;;;;;;;5084038;28;20296;-69
2022/10/06 03:59:16;;;;;;;8.23;6.00;;;;;;;;;;5104334;27;20269;-68
2022/10/06 04:01:45;;;;;;;9.67;6.57;;;;;;;;;;5095445;27;20285;-68
2022/10/06 04:04:17;;;;;;;8.90;5.77;;;;;;;;;;5088986;28;20192;-69
2022/10/06 04:06:48;;;;;;;7.67;5.67;;;;;;;;;;5091861;27;20602;-69
2022/10/06 04:09:17;;;;;;;10.63;6.10;;;;;;;;;;5103744;27;20205;-68
2022/10/06 04:11:44;;;;;;;7.73;6.27;;;;;;;;;;5092238;27;20191;-70
2022/10/06 04:14:13;;;;;;;9.80;6.60;;;;;;;;;;5090462;27;20188;-68
2022/10/06 04:16:44;;;;;;;9.13;5.73;;;;;;;;;;5090824;28;20295;-71
2022/10/06 04:19:13;;;;;;;7.77;5.73;;;;;;;;;;5085089;28;20208;-68
2022/10/06 04:21:44;;;;;;;8.73;6.30;;;;;;;;;;5091406;27;20192;-71
2022/10/06 04:24:16;;;;;;;8.47;5.97;;;;;;;;;;5086050;28;20209;-71
2022/10/06 04:26:45;;;;;;;7.83;5.87;;;;;;;;;;5079687;28;21036;-70
2022/10/06 04:29:12;;;;;;;6.57;5.50;;;;;;;;;;5095807;28;22116;-69
2022/10/06 04:31:39;;;;;;;8.40;5.83;;;;;;;;;;5095236;27;20200;-70
2022/10/06 04:34:12;;;;;;;8.73;6.20;;;;;;;;;;5095744;28;20184;-72
2022/10/06 04:36:40;;;;;;;7.80;6.30;;;;;;;;;;5070629;28;20311;-72
2022/10/06 04:39:11;;;;;;;8.67;6.37;;;;;;;;;;5077001;28;20247;-71
2022/10/06 04:41:46;;;;;;;6.67;5.77;;;;;;;;;;5076701;28;20196;-71
2022/10/06 04:44:18;;;;;;;8.73;5.87;;;;;;;;;;5091270;28;20193;-70
2022/10/06 04:46:45;;;;;;;6.77;5.73;;;;;;;;;;5084066;28;20703;-71
2022/10/06 04:49:14;;;;;;;7.17;5.70;;;;;;;;;;5091894;28;20293;-70
2022/10/06 04:51:48;;;;;;;6.63;5.27;;;;;;;;;;5070246;28;20209;-72
2022/10/06 04:54:16;;;;;;;10.40;5.87;;;;;;;;;;5084886;28;20262;-72
2022/10/06 04:56:45;;;;;;;8.30;5.63;;;;;;;;;;5096572;28;20189;-70
2022/10/06 04:59:14;;;;;;;7.70;6.13;;;;;;;;;;5091720;28;20200;-73
2022/10/06 05:01:43;;;;;;;6.23;5.33;;;;;;;;;;5082443;28;20933;-72
2022/10/06 05:04:12;;;;;;;7.53;5.03;;;;;;;;;;5085717;28;20201;-70
2022/10/06 05:06:39;;;;;;;8.43;5.40;;;;;;;;;;5096139;28;20221;-70
2022/10/06 05:09:08;;;;;;;9.77;5.80;;;;;;;;;;5098822;28;21072;-73
2022/10/06 05:11:38;;;;;;;6.93;5.33;;;;;;;;;;5094000;28;20192;-72
2022/10/06 05:14:07;;;;;;;6.17;5.33;;;;;;;;;;5085824;28;20196;-72
2022/10/06 05:16:37;;;;;;;8.40;5.70;;;;;;;;;;5083248;28;20209;-72
2022/10/06 05:19:07;;;;;;;9.40;5.33;;;;;;;;;;5079616;28;21070;-71
2022/10/06 05:21:36;;;;;;;6.60;5.50;;;;;;;;;;5080873;28;20978;-73
2022/10/06 05:24:06;;;;;;;11.23;5.23;;;;;;;;;;5084164;28;20265;-73
2022/10/06 05:26:34;;;;;;;7.53;5.17;;;;;;;;;;5096398;28;20232;-72
2022/10/06 05:29:04;;;;;;;6.87;4.97;;;;;;;;;;5087888;28;20627;-70
2022/10/06 05:31:32;;;;;;;8.60;5.43;;;;;;;;;;5073043;28;20197;-71
2022/10/06 05:34:02;;;;;;;6.93;5.50;;;;;;;;;;5070890;28;20272;-70
2022/10/06 05:36:29;;;;;;;7.17;4.67;;;;;;;;;;5053534;28;20322;-70
2022/10/06 05:38:57;;;;;;;8.47;5.00;;;;;;;;;;5085199;28;20257;-72
2022/10/06 05:41:27;;;;;;;7.63;4.73;;;;;;;;;;5095765;28;20192;-72
2022/10/06 05:43:57;;;;;;;7.10;5.10;;;;;;;;;;5078419;28;20201;-71
2022/10/06 05:46:33;;;;;;;11.07;5.23;;;;;;;;;;5078082;28;20575;-72
2022/10/06 05:49:02;;;;;;;6.33;4.30;;;;;;;;;;5113017;28;20943;-72
2022/10/06 05:51:30;;;;;;;6.13;4.17;;;;;;;;;;5078346;28;20196;-72
2022/10/06 05:54:00;;;;;;;7.10;4.40;;;;;;;;;;5092279;28;20408;-73
2022/10/06 05:56:28;;;;;;;9.03;4.20;;;;;;;;;;5085080;28;20189;-76
2022/10/06 05:58:55;;;;;;;8.20;4.57;;;;;;;;;;5112471;27;20203;-72
2022/10/06 06:01:33;;;;;;;8.10;4.77;;;;;;;;;;5114883;27;20209;-73
2022/10/06 06:04:05;;;;;;;7.20;4.07;;;;;;;;;;5114935;27;20196;-72
2022/10/06 06:06:43;;;;;;;7.10;4.00;;;;;;;;;;5114386;27;20736;-72
2022/10/06 06:09:18;;;;;;;8.13;4.10;;;;;;;;;;5115019;27;20200;-72
2022/10/06 06:11:48;;;;;;;9.37;4.13;;;;;;;;;;5115126;27;20199;-72
2022/10/06 06:14:18;;;;;;;5.50;3.40;;;;;;;;;;5131927;27;20196;-73
2022/10/06 06:16:46;;;;;;;5.90;3.80;;;;;;;;;;5114638;27;20291;-72
2022/10/06 06:19:14;;;;;;;6.70;3.70;;;;;;;;;;5125396;27;20193;-72
2022/10/06 06:21:44;;;;;;;4.80;3.30;;;;;;;;;;5087110;28;20216;-72
2022/10/06 06:24:11;;;;;;;7.53;3.70;;;;;;;;;;5087208;28;20908;-74
2022/10/06 06:26:39;;;;;;;4.07;3.23;;;;;;;;;;5090995;28;20220;-71
2022/10/06 06:29:06;;;;;;;6.67;3.50;;;;;;;;;;5091729;28;20312;-74
2022/10/06 06:31:44;;;;;;;4.57;3.20;;;;;;;;;;5093994;28;20548;-70
2022/10/06 06:34:12;;;;;;;4.47;3.50;;;;;;;;;;5094127;28;20197;-72
2022/10/06 06:36:42;;;;;;;4.60;3.47;;;;;;;;;;5093028;27;20262;-71
2022/10/06 06:39:13;;;;;;;6.23;3.37;;;;;;;;;;5114570;27;20641;-71
2022/10/06 06:41:41;;;;;;;5.00;3.70;;;;;;;;;;5116101;27;20212;-70
2022/10/06 06:44:16;;;;;;;5.70;3.77;;;;;;;;;;5078482;28;20211;-73
2022/10/06 06:46:51;;;;;;;8.07;4.00;;;;;;;;;;5111981;28;20208;-73
2022/10/06 06:49:19;;;;;;;5.03;3.87;;;;;;;;;;5093823;28;20197;-71
2022/10/06 06:51:54;;;;;;;5.40;3.77;;;;;;;;;;5093709;28;20241;-71
2022/10/06 06:54:23;;;;;;;4.67;3.40;;;;;;;;;;5089642;28;20209;-73
2022/10/06 06:56:57;;;;;;;8.83;4.03;;;;;;;;;;5073377;28;20199;-69
2022/10/06 06:59:24;;;;;;;4.27;3.33;;;;;;;;;;5073210;28;20207;-69
2022/10/06 07:01:53;;;;;;;4.67;3.53;;;;;;;;;;5073445;28;20198;-72
2022/10/06 07:04:21;;;;;;;6.30;3.83;;;;;;;;;;5096289;28;20199;-76
2022/10/06 07:06:57;;;;;;;7.60;3.70;;;;;;;;;;5086937;28;20220;-71
2022/10/06 07:09:30;;;;;;;4.00;3.60;;;;;;;;;;5102630;28;20669;-71
2022/10/06 07:12:01;;;;;;;6.00;3.87;;;;;;;;;;5078659;28;20200;-74
2022/10/06 07:14:28;;;;;;;5.07;3.00;;;;;;;;;;5099943;27;20196;-72
2022/10/06 07:25:24;;;;;;;6.23;3.13;;;;;;;;;;5106649;27;21214;-72
2022/10/06 07:27:59;;;;;;;5.63;3.00;;;;;;;;;;5055688;28;20203;-73
2022/10/06 07:30:30;;;;;;;4.87;3.40;;;;;;;;;;5083498;28;20219;-75
2022/10/06 07:33:08;;;;;;;8.80;3.30;;;;;;;;;;5099184;27;20206;-72
2022/10/06 07:35:37;;;;;;;6.93;3.13;;;;;;;;;;5081082;27;20229;-71
2022/10/06 07:38:06;;;;;;;6.50;3.20;;;;;;;;;;5096629;28;20235;-72
2022/10/06 07:40:51;;;;;;;5.13;3.23;;;;;;;;;;5092490;28;20200;-72
2022/10/06 07:43:39;;;;;;;4.27;2.83;;;;;;;;;;5093393;28;20250;-75
2022/10/06 07:46:10;;;;;;;3.97;2.50;;;;;;;;;;5092621;28;20621;-72
2022/10/06 07:48:42;;;;;;;3.50;2.43;;;;;;;;;;5092475;28;20196;-72
2022/10/06 07:51:13;;;;;;;3.60;2.57;;;;;;;;;;5092880;28;20187;-74
2022/10/06 07:53:41;;;;;;;2.90;1.40;;;;;;;;;;5059909;28;20207;-71
2022/10/06 07:56:31;;;;;;;4.00;1.07;;;;;;;;;;5102705;28;20637;-71
2022/10/06 07:58:58;;;;;;;13.67;1.83;;;;;;;;;;5083248;28;20667;-71
2022/10/06 08:01:29;;;;;;;2.77;0.97;;;;;;;;;;5070988;28;21052;-71
2022/10/06 08:03:56;;;;;;;5.20;1.10;;;;;;;;;;5073586;28;20227;-71
2022/10/06 08:06:41;;;;;;;1.60;0.80;;;;;;;;;;5073282;28;20208;-71
2022/10/06 08:09:07;;;;;;;4.07;2.57;;;;;;;;;;5064236;28;20199;-71
2022/10/06 08:11:35;;;;;;;3.13;0.90;;;;;;;;;;5101213;27;20188;-74
2022/10/06 08:14:01;;;;;;;5.57;1.17;;;;;;;;;;5099530;28;20184;-73
2022/10/06 08:16:30;;;;;;;10.97;2.93;;;;;;;;;;5101497;28;20189;-69
2022/10/06 08:19:18;;;;;;;2.33;0.87;;;;;;;;;;5103247;27;20275;-74
2022/10/06 08:21:45;;;;;;;5.57;2.87;;;;;;;;;;5105418;28;20256;-70
2022/10/06 08:24:29;;;;;;;2.43;0.77;;;;;;;;;;5109496;28;20252;-72
2022/10/06 08:27:16;;;;;;;6.10;1.80;;;;;;;;;;5109387;28;20236;-70
2022/10/06 08:29:43;;;;;;;4.47;1.10;;;;;;;;;;5109518;28;20281;-69
2022/10/06 08:32:10;;;;;;;3.10;1.60;;;;;;;;;;5101800;28;20192;-70
2022/10/06 08:34:37;;;;;;;20.63;14.13;;;;;;;;;;5108695;28;20188;-72
2022/10/06 08:37:09;;;;;;;5.90;0.87;;;;;;;;;;5092460;28;20217;-70
2022/10/06 08:39:46;;;;;;;5.53;1.17;;;;;;;;;;5109464;28;20219;-71
2022/10/06 08:42:17;;;;;;;3.53;0.80;;;;;;;;;;5091494;28;20189;-75
2022/10/06 08:44:45;;;;;;;6.70;2.20;;;;;;;;;;5091948;28;20257;-68
2022/10/06 08:47:21;;;;;;;2.50;0.80;;;;;;;;;;5109129;28;20270;-69
2022/10/06 08:49:49;;;;;;;4.37;0.80;;;;;;;;;;5090411;28;20271;-69
2022/10/06 08:52:35;;;;;;;6.37;1.17;;;;;;;;;;5090807;28;20693;-73
2022/10/06 08:55:06;;;;;;;5.13;0.90;;;;;;;;;;5097639;28;20193;-70
2022/10/06 08:57:56;;;;;;;2.23;0.70;;;;;;;;;;5070188;28;20192;-71
2022/10/06 09:00:23;;;;;;;3.60;0.90;;;;;;;;;;5078634;28;20206;-71
2022/10/06 09:02:50;;;;;;;5.37;1.00;;;;;;;;;;5089046;28;20193;-70
2022/10/06 09:05:24;;;;;;;3.90;0.97;;;;;;;;;;5080255;28;20195;-75
2022/10/06 09:08:15;;;;;;;3.10;0.87;;;;;;;;;;5091436;28;20200;-70
2022/10/06 09:10:48;;;;;;;4.40;1.13;;;;;;;;;;5111750;28;20216;-68
2022/10/06 09:13:24;;;;;;;6.27;0.90;;;;;;;;;;5114077;28;20593;-69
2022/10/06 09:15:55;;;;;;;4.87;1.00;;;;;;;;;;5095764;28;20263;-68
2022/10/06 09:18:34;;;;;;;6.00;1.20;;;;;;;;;;5095589;28;20189;-68
2022/10/06 09:21:29;;;;;;;4.73;1.03;;;;;;;;;;5099214;28;20673;-68
2022/10/06 09:23:58;;;;;;;5.33;0.87;;;;;;;;;;5112570;28;20670;-68
2022/10/06 09:26:33;;;;;;;4.17;1.10;;;;;;;;;;5079109;28;20197;-68
2022/10/06 09:29:00;;;;;;;5.33;0.80;;;;;;;;;;5113507;28;20204;-68
2022/10/06 09:31:31;;;;;;;4.63;0.90;;;;;;;;;;5113415;28;20181;-68
2022/10/06 09:34:03;;;;;;;4.83;1.00;;;;;;;;;;5113597;28;20220;-69
2022/10/06 09:36:30;;;;;;;5.03;0.80;;;;;;;;;;5095475;27;20226;-68
2022/10/06 09:38:58;;;;;;;16.97;2.20;;;;;;;;;;5099000;27;20192;-68
2022/10/06 09:41:28;;;;;;;6.37;1.07;;;;;;;;;;5115729;27;20191;-69
2022/10/06 09:44:39;;;;;;;3.57;1.20;;;;;;;;;;5118470;27;20165;-68
2022/10/06 09:47:21;;;;;;;5.07;1.00;;;;;;;;;;5131857;27;20307;-68
2022/10/06 09:50:02;;;;;;;8.30;1.10;;;;;;;;;;5098283;27;20202;-68
2022/10/06 09:52:29;;;;;;;8.13;1.47;;;;;;;;;;5133441;27;20188;-68
2022/10/06 09:55:12;;;;;;;4.37;1.23;;;;;;;;;;5133913;27;20176;-68
2022/10/06 09:57:46;;;;;;;5.67;0.90;;;;;;;;;;5115461;27;20207;-68
2022/10/06 10:00:26;;;;;;;5.77;1.40;;;;;;;;;;5133172;27;20209;-68
2022/10/06 10:03:00;;;;;;;4.97;1.17;;;;;;;;;;5133559;27;20233;-68
2022/10/06 10:05:33;;;;;;;5.50;1.33;;;;;;;;;;5133474;27;20172;-68
2022/10/06 10:08:07;;;;;;;5.73;1.33;;;;;;;;;;5115209;27;20212;-68
2022/10/06 10:10:35;;;;;;;4.83;0.90;;;;;;;;;;5115365;27;20191;-69
2022/10/06 10:13:02;;;;;;;5.50;1.40;;;;;;;;;;5115085;27;20188;-68
2022/10/06 10:15:30;;;;;;;5.27;1.10;;;;;;;;;;5133214;27;20180;-69
2022/10/06 10:17:57;;;;;;;5.00;1.47;;;;;;;;;;5098090;27;20184;-68
2022/10/06 10:20:35;;;;;;;6.70;1.40;;;;;;;;;;5133222;27;20188;-69
2022/10/06 10:23:07;;;;;;;6.97;1.33;;;;;;;;;;5132204;27;20211;-68
2022/10/06 10:25:43;;;;;;;3.97;1.03;;;;;;;;;;5133235;27;20190;-68
2022/10/06 10:28:16;;;;;;;5.93;0.97;;;;;;;;;;5132956;27;20188;-68
2022/10/06 10:30:45;;;;;;;6.57;1.17;;;;;;;;;;5114889;27;20249;-68
2022/10/06 10:33:24;;;;;;;4.17;1.23;;;;;;;;;;5114696;27;20559;-69
2022/10/06 10:35:52;;;;;;;5.03;1.20;;;;;;;;;;5132778;27;20211;-68
2022/10/06 10:38:19;;;;;;;9.10;1.30;;;;;;;;;;5096402;28;20232;-69
2022/10/06 10:40:54;;;;;;;8.23;1.33;;;;;;;;;;5110862;28;20258;-68
2022/10/06 10:43:30;;;;;;;5.23;1.27;;;;;;;;;;5083850;28;20208;-71
2022/10/06 10:46:05;;;;;;;6.03;1.10;;;;;;;;;;5095248;28;20295;-75
2022/10/06 10:48:33;;;;;;;7.73;1.20;;;;;;;;;;5107840;27;20591;-73
2022/10/06 10:51:02;;;;;;;5.40;1.23;;;;;;;;;;5077077;27;20853;-73
2022/10/06 10:53:31;;;;;;;6.27;1.13;;;;;;;;;;5093573;28;20670;-73
2022/10/06 10:56:00;;;;;;;5.00;1.23;;;;;;;;;;5079449;28;20556;-71
2022/10/06 10:58:30;;;;;;;5.00;1.10;;;;;;;;;;5072466;28;20201;-75
2022/10/06 11:01:26;;;;;;;7.37;1.20;;;;;;;;;;5074700;28;20189;-74
2022/10/06 11:04:11;;;;;;;6.60;1.17;;;;;;;;;;5080371;27;20975;-70
2022/10/06 11:06:38;;;;;;;3.77;1.50;;;;;;;;;;5107623;28;20686;-71
2022/10/06 11:09:15;;;;;;;9.63;1.27;;;;;;;;;;5108171;28;20201;-73
2022/10/06 11:11:57;;;;;;;4.77;1.00;;;;;;;;;;5091228;28;20189;-72
2022/10/06 11:14:28;;;;;;;6.60;1.60;;;;;;;;;;5090216;28;20196;-75
2022/10/06 11:17:01;;;;;;;6.83;1.50;;;;;;;;;;5108736;28;20255;-73
2022/10/06 11:19:28;;;;;;;5.73;1.40;;;;;;;;;;5105630;28;20201;-72
2022/10/06 11:21:55;;;;;;;5.07;1.20;;;;;;;;;;5098714;28;20189;-70
2022/10/06 11:24:30;;;;;;;5.87;1.33;;;;;;;;;;5108625;28;20616;-69
2022/10/06 11:27:00;;;;;;;4.63;1.20;;;;;;;;;;5108255;28;20216;-69
2022/10/06 11:29:30;;;;;;;4.20;1.20;;;;;;;;;;5107180;28;20745;-68
2022/10/06 11:32:15;;;;;;;5.37;1.10;;;;;;;;;;5108337;28;20204;-68
2022/10/06 11:34:47;;;;;;;7.23;1.50;;;;;;;;;;5107598;28;20846;-73
2022/10/06 11:37:19;;;;;;;4.47;1.20;;;;;;;;;;5089493;28;20270;-74
2022/10/06 11:39:54;;;;;;;5.37;0.80;;;;;;;;;;5108047;28;20598;-70
2022/10/06 11:42:22;;;;;;;7.50;0.80;;;;;;;;;;5087519;28;20284;-71
2022/10/06 11:45:03;;;;;;;8.77;1.10;;;;;;;;;;5105965;28;20212;-71
2022/10/06 11:47:48;;;;;;;4.87;1.17;;;;;;;;;;5108360;28;20592;-79
2022/10/06 11:50:41;;;;;;;4.93;1.23;;;;;;;;;;5108346;28;20311;-79
2022/10/06 11:53:33;;;;;;;6.30;1.37;;;;;;;;;;5083242;28;20576;-76
2022/10/06 11:56:24;;;;;;;5.23;1.20;;;;;;;;;;5070200;28;20192;-78
2022/10/06 11:58:54;;;;;;;4.23;1.10;;;;;;;;;;5062750;28;20205;-79
2022/10/06 12:01:30;;;;;;;7.17;1.47;;;;;;;;;;5079401;28;20592;-76
2022/10/06 12:04:07;;;;;;;11.13;1.37;;;;;;;;;;5079002;28;20560;-84
2022/10/06 12:06:47;;;;;;;5.63;1.10;;;;;;;;;;5070402;28;20229;-74
2022/10/06 12:09:22;;;;;;;6.37;0.90;;;;;;;;;;5088548;28;20177;-80
2022/10/06 12:11:50;;;;;;;6.20;1.63;;;;;;;;;;5089734;28;20235;-77
2022/10/06 12:14:16;;;;;;;6.13;1.40;;;;;;;;;;5088604;28;20621;-79
2022/10/06 12:17:13;;;;;;;5.50;1.30;;;;;;;;;;5082411;28;20190;-79
2022/10/06 12:19:48;;;;;;;7.50;1.50;;;;;;;;;;5073914;28;20221;-80
2022/10/06 12:22:23;;;;;;;5.93;1.40;;;;;;;;;;5075441;28;20194;-80
2022/10/06 12:24:56;;;;;;;4.57;0.97;;;;;;;;;;5088372;28;20284;-77
2022/10/06 12:27:27;;;;;;;8.50;1.47;;;;;;;;;;5087738;28;20236;-73
2022/10/06 12:29:58;;;;;;;4.77;0.80;;;;;;;;;;5084888;28;20672;-73
2022/10/06 12:32:47;;;;;;;4.97;1.10;;;;;;;;;;5083611;28;20279;-72
2022/10/06 12:35:18;;;;;;;5.40;1.40;;;;;;;;;;5073722;28;20208;-74
2022/10/06 12:37:51;;;;;;;8.60;1.53;;;;;;;;;;5100607;28;20216;-71
2022/10/06 12:40:47;;;;;;;6.13;1.47;;;;;;;;;;5093186;28;20196;-71
2022/10/06 12:43:17;;;;;;;6.53;1.13;;;;;;;;;;5095209;28;20224;-71
2022/10/06 12:46:06;;;;;;;6.53;1.00;;;;;;;;;;5093873;28;20279;-71
2022/10/06 12:48:39;;;;;;;4.43;1.30;;;;;;;;;;5092374;28;20204;-67
2022/10/06 12:51:29;;;;;;;6.23;1.17;;;;;;;;;;5088651;28;20299;-67
2022/10/06 12:53:58;;;;;;;5.30;1.03;;;;;;;;;;5073164;28;20194;-65
2022/10/06 12:56:27;;;;;;;4.80;1.20;;;;;;;;;;5091504;28;20199;-71
2022/10/06 12:58:54;;;;;;;9.33;1.10;;;;;;;;;;5098388;28;20280;-68
2022/10/06 13:01:21;;;;;;;7.83;1.43;;;;;;;;;;5097866;28;20197;-68
2022/10/06 13:03:49;;;;;;;5.20;1.30;;;;;;;;;;5083134;28;20690;-68
2022/10/06 13:06:18;;;;;;;4.10;1.20;;;;;;;;;;5101442;28;20195;-68
2022/10/06 13:08:45;;;;;;;6.50;1.30;;;;;;;;;;5075658;28;20635;-68
2022/10/06 13:11:19;;;;;;;4.17;1.20;;;;;;;;;;5099686;28;20193;-70
2022/10/06 13:13:54;;;;;;;6.90;1.30;;;;;;;;;;5090942;28;20246;-70
2022/10/06 13:16:30;;;;;;;4.93;1.30;;;;;;;;;;5109938;28;20754;-74
2022/10/06 13:18:58;;;;;;;6.53;1.27;;;;;;;;;;5065662;28;20219;-73
2022/10/06 13:21:28;;;;;;;5.70;1.30;;;;;;;;;;5074325;28;20244;-73
2022/10/06 13:23:55;;;;;;;10.00;1.57;;;;;;;;;;5083597;28;20335;-72
2022/10/06 13:26:26;;;;;;;6.77;1.20;;;;;;;;;;5087953;28;20220;-73
2022/10/06 13:28:56;;;;;;;4.20;1.13;;;;;;;;;;5079790;28;20213;-75
2022/10/06 13:31:25;;;;;;;7.70;1.40;;;;;;;;;;5092023;28;20189;-76
2022/10/06 13:33:54;;;;;;;6.13;1.07;;;;;;;;;;5110067;28;20191;-74
2022/10/06 13:36:22;;;;;;;4.77;1.20;;;;;;;;;;5108989;28;20221;-71
2022/10/06 13:38:49;;;;;;;6.73;1.60;;;;;;;;;;5109482;28;20192;-70
2022/10/06 13:41:17;;;;;;;6.90;1.20;;;;;;;;;;5091613;28;20591;-71
2022/10/06 13:43:46;;;;;;;3.57;0.97;;;;;;;;;;5091414;28;20188;-71
2022/10/06 13:46:16;;;;;;;4.50;1.00;;;;;;;;;;5091408;28;20260;-69
2022/10/06 13:48:44;;;;;;;5.17;1.53;;;;;;;;;;5109287;28;20305;-71
2022/10/06 13:51:18;;;;;;;7.67;1.40;;;;;;;;;;5091396;28;20196;-70
2022/10/06 13:53:46;;;;;;;6.80;1.33;;;;;;;;;;5109671;28;21035;-70
2022/10/06 13:56:24;;;;;;;8.10;1.50;;;;;;;;;;5091595;28;20204;-69
2022/10/06 13:58:50;;;;;;;8.23;1.63;;;;;;;;;;5094947;28;20369;-69
2022/10/06 14:01:26;;;;;;;5.27;1.10;;;;;;;;;;5113121;28;20187;-69
2022/10/06 14:04:12;;;;;;;5.67;1.50;;;;;;;;;;5112968;28;20674;-69
2022/10/06 14:06:44;;;;;;;6.70;1.50;;;;;;;;;;5112773;28;20233;-69
2022/10/06 14:09:12;;;;;;;7.77;1.57;;;;;;;;;;5077795;28;20200;-68
2022/10/06 14:11:39;;;;;;;5.50;1.60;;;;;;;;;;5095036;28;20956;-68
2022/10/06 14:14:12;;;;;;;8.47;1.47;;;;;;;;;;5112856;28;20606;-68
2022/10/06 14:16:39;;;;;;;6.33;1.40;;;;;;;;;;5112881;28;20925;-68
2022/10/06 14:19:06;;;;;;;6.37;1.50;;;;;;;;;;5094622;28;20835;-68
2022/10/06 14:21:35;;;;;;;6.40;1.50;;;;;;;;;;5094377;28;20204;-68
2022/10/06 14:24:03;;;;;;;6.63;1.30;;;;;;;;;;5112274;28;20208;-69
2022/10/06 14:26:38;;;;;;;7.73;1.77;;;;;;;;;;5095515;28;20237;-69
2022/10/06 14:29:05;;;;;;;9.10;2.00;;;;;;;;;;5112221;28;20255;-68
2022/10/06 14:31:32;;;;;;;8.57;1.43;;;;;;;;;;5112508;28;20185;-68
2022/10/06 14:34:00;;;;;;;9.37;1.50;;;;;;;;;;5112167;28;20181;-69
2022/10/06 14:36:27;;;;;;;8.67;2.50;;;;;;;;;;5076899;28;20216;-68
2022/10/06 14:38:55;;;;;;;10.47;2.33;;;;;;;;;;5077467;28;20188;-68
2022/10/06 14:41:26;;;;;;;6.83;1.90;;;;;;;;;;5112321;28;20189;-68
2022/10/06 14:43:53;;;;;;;8.23;2.20;;;;;;;;;;5093902;28;20201;-68
2022/10/06 14:46:20;;;;;;;10.07;2.30;;;;;;;;;;5094220;28;20185;-68
2022/10/06 14:48:47;;;;;;;6.83;1.97;;;;;;;;;;5112053;28;20244;-68
2022/10/06 14:51:15;;;;;;;8.77;1.87;;;;;;;;;;5111779;28;20192;-68
2022/10/06 14:53:42;;;;;;;5.97;1.70;;;;;;;;;;5112350;28;20189;-68
2022/10/06 14:56:09;;;;;;;9.33;1.90;;;;;;;;;;5111632;28;20189;-68
2022/10/06 14:58:37;;;;;;;8.10;1.77;;;;;;;;;;5094469;28;20637;-67
2022/10/06 15:01:06;;;;;;;5.07;1.30;;;;;;;;;;5093865;28;20517;-68
2022/10/06 15:03:35;;;;;;;6.03;1.60;;;;;;;;;;5088158;28;20832;-67
2022/10/06 15:08:52;;;;;;;9.77;1.67;;;;;;;;;;5109979;28;20216;-72
2022/10/06 15:11:19;;;;;;;8.77;1.67;;;;;;;;;;5093443;28;20188;-72
2022/10/06 15:13:46;;;;;;;7.13;1.43;;;;;;;;;;5111675;28;20230;-70
2022/10/06 15:16:13;;;;;;;4.50;1.50;;;;;;;;;;5111435;28;20184;-68